Klamath Falls, OR

16:24 PST le 12 février 2016 (GMT -0800)
Klamath Falls International | | Change Station
CLOSE
Current Station
Aéroport
Location: Klamath Falls,
Altitude: 4091 ft
Stations météo à proximité

Alt. 4091 ft 42.15 °N, 121.72 °W | Updated 31 minutes ago

Partiellement nuageux
Partiellement nuageux
58 ° F
Paraît 58 ° F
N
15
Vent Variable Vent de Ouest

Aujourd'hui
Haut(e) -- | Bas -- ° F
--% Risque de précip.
Hier
Haut(e) -- | Bas -- ° F
Precip. -- pouce
Pression 30.14 pouce
Visibilité 10.0 Miles terrestres
Nuages Ciel dégagé
Point de rosée 37 ° F
Humidité 46%
Précipitations 0.00 pouce
Profondeur de la couche neigeuse Non disponible.
7:07 AM 5:35 PM
Lune montante, 25% visible
METAR KLMT 122353Z AUTO 27013KT 10SM CLR 14/03 A3017 RMK AO2 SLP205 T01440028 10161 20094 55007
Pression 30.14 pouce
Visibilité 10.0 Miles terrestres
Nuages Ciel dégagé
Point de rosée 37 ° F
Humidité 46%
Précipitations 0.00 pouce
Profondeur de la couche neigeuse Non disponible.
7:07 AM 5:35 PM
Lune montante, 25% visible
METAR KLMT 122353Z AUTO 27013KT 10SM CLR 14/03 A3017 RMK AO2 SLP205 T01440028 10161 20094 55007

10-Day Weather Forecast

Almanac

Astronomie

Feb. 12, 2016 Lever Coucher
Temps réel
Crépuscule civil
Crépuscule nautique
Crépuscule astronomique
Lune
Durée de lumière visible
Longueur du jour
Tomorrow will be .
, % of the Moon is Illuminated

Extrêmes aujourd'hui

State Highs State Lows

Community

WunderPhotos

Upload Photos

1,892,439 Photos téléchargées !

WunderBlog® & News

Nearby

Qualité de l'air

  Qualité de l'air Indice de la qualité de l'air Polluant
Not available.

Épaisseur de neige

Station Depth Altitude

Activité sismique

Ville Distance Mag. Time & Date
Minimum magnitude displayed is 2.5.

Températures des eaux côtières

Lieu Température

Stations

Stations météo à proximité

Emplacement de la station Température Refroidissement éolien Point de rosée Humidité Vent Precip. Alt. Mise à jour Type
                   

Watches & Warnings

There are currently no watches in effect.